CST,Max TemperatureF,Mean TemperatureF,Min TemperatureF,Max Dew PointF,MeanDew PointF,Min DewpointF,Max Humidity, Mean Humidity, Min Humidity, Max Sea Level PressureIn, Mean Sea Level PressureIn, Min Sea Level PressureIn, Max VisibilityMiles, Mean VisibilityMiles, Min VisibilityMiles, Max Wind SpeedMPH, Mean Wind SpeedMPH, Max Gust SpeedMPH,PrecipitationIn, CloudCover, Events, WindDirDegrees
2013-1-1,14,0,-14,10,-5,-20,92,81,70,30.12,29.98,29.84,10,8,2,9,2,,0.00,4,Snow,208
2013-1-2,21,18,14,18,16,10,93,88,86,29.98,29.85,29.80,10,8,2,9,5,,0.00,7,Snow,179
2013-1-3,17,11,5,12,7,1,92,80,58,30.09,29.95,29.76,10,9,4,13,7,18,0.00,3,Snow,256
2013-1-4,24,12,0,19,11,-4,93,84,74,30.04,29.91,29.78,10,10,10,13,5,20,0.00,1,,281
2013-1-5,17,6,-5,16,6,-11,93,85,77,30.02,29.93,29.85,10,9,1,5,0,,0.00,5,,310
2013-1-6,17,12,6,12,8,3,92,81,63,30.10,30.00,29.80,10,10,7,12,2,18,0.00,3,Snow,174
2013-1-7,33,24,15,25,17,9,86,75,64,29.81,29.68,29.58,10,10,10,20,10,32,0.00,5,,223
2013-1-8,32,24,15,27,20,12,93,81,69,29.87,29.75,29.57,10,9,2,14,4,20,0.00,3,Snow,167
2013-1-9,30,24,19,25,19,16,86,79,69,30.20,29.94,29.58,10,9,2,24,9,37,0.00,7,Snow,254
2013-1-10,44,32,19,30,19,10,93,59,31,30.14,29.94,29.65,10,10,5,17,11,29,0.00,2,Rain,161
2013-1-11,33,32,32,32,31,30,93,92,87,29.63,29.46,29.26,10,5,1,12,4,17,0.18,6,Rain,148
2013-1-12,33,17,1,32,7,-2,93,80,67,29.98,29.62,29.23,10,6,1,17,7,22,0.01,7,Snow,299
2013-1-13,3,-2,-7,-2,-6,-13,85,78,66,30.06,29.99,29.94,10,10,10,13,6,16,0.00,3,,303
2013-1-14,6,2,-2,0,-5,-9,85,75,61,30.22,30.15,30.06,10,10,5,10,6,,0.00,6,,254
2013-1-15,21,11,1,12,3,-2,85,70,49,30.12,29.88,29.47,10,10,2,15,6,22,0.00,4,Snow,183
2013-1-16,23,7,-9,19,2,-18,93,71,47,30.15,29.74,29.41,10,8,1,16,10,23,0.00,4,Snow,299
2013-1-17,3,-6,-16,-8,-15,-24,84,70,60,30.26,30.21,30.15,10,10,7,13,3,17,0.00,3,,293
2013-1-18,15,4,-7,12,4,-13,86,82,71,30.15,29.83,29.67,10,7,1,6,1,,0.02,7,Snow,118
2013-1-19,21,7,-7,19,5,-13,93,81,71,30.09,29.72,29.51,10,5,0,20,7,29,0.00,6,Snow,284
2013-1-20,-2,-11,-20,-11,-18,-26,84,73,60,30.20,30.13,30.08,10,9,4,15,7,22,0.00,0,,292
2013-1-21,-13,-18,-23,-20,-26,-33,76,67,53,30.13,30.09,30.06,10,8,2,13,9,20,0.00,0,,292
2013-1-22,-2,-16,-29,-15,-24,-36,84,67,55,30.19,30.13,30.05,10,10,10,8,2,,0.00,0,,284
2013-1-23,-4,-14,-25,-9,-19,-33,84,69,54,30.53,30.19,29.97,10,8,2,21,4,29,0.00,2,Snow,310
2013-1-24,1,-16,-34,-4,-24,-44,78,66,49,30.55,30.37,30.03,10,8,2,12,2,16,0.00,2,Snow,145
2013-1-25,8,0,-9,1,-4,-17,85,77,67,30.21,29.98,29.80,10,8,2,10,6,16,0.00,5,Snow,306
2013-1-26,15,-4,-23,7,-8,-31,85,71,58,30.22,30.15,30.05,10,10,5,12,3,16,0.00,4,Snow,154
2013-1-27,30,18,6,21,11,3,85,68,51,30.05,29.92,29.80,10,10,10,9,4,,0.00,2,,136
2013-1-28,32,29,26,27,25,21,93,85,75,29.81,29.76,29.66,10,8,1,10,2,,0.05,7,Snow,161
2013-1-29,28,22,15,27,22,10,100,88,79,29.74,29.61,29.49,10,7,1,14,4,17,0.31,7,Snow,307
2013-1-30,14,8,3,10,2,-2,86,78,72,29.74,29.65,29.61,10,8,4,10,7,18,0.00,8,Snow,320
2013-1-31,3,-6,-18,-2,-11,-26,85,71,64,30.07,29.87,29.64,10,9,3,17,9,23,0.00,3,Snow,309